createdAt,value
2022-11-13T00:01:41.781Z,99.90
2022-11-13T00:04:27.077Z,99.90
2022-11-13T00:07:12.645Z,99.90
2022-11-13T00:09:57.982Z,99.90
2022-11-13T00:12:43.366Z,99.90
2022-11-13T00:15:28.972Z,99.90
2022-11-13T00:18:14.565Z,99.90
2022-11-13T00:21:19.527Z,99.90
2022-11-13T00:24:05.619Z,99.90
2022-11-13T00:26:50.865Z,99.90
2022-11-13T00:29:36.445Z,99.90
2022-11-13T00:32:22.724Z,99.90
2022-11-13T00:35:08.317Z,99.90
2022-11-13T00:37:54.966Z,99.90
2022-11-13T00:40:40.209Z,99.90
2022-11-13T00:43:26.121Z,99.90
2022-11-13T00:46:11.912Z,99.90
2022-11-13T00:48:57.402Z,99.90
2022-11-13T00:51:42.669Z,99.90
2022-11-13T00:54:28.015Z,99.90
2022-11-13T00:57:13.419Z,99.90
2022-11-13T00:59:58.770Z,99.90
2022-11-13T01:02:44.316Z,99.90
2022-11-13T01:05:30.575Z,99.90
2022-11-13T01:08:16.475Z,99.90
2022-11-13T01:11:12.949Z,99.90
2022-11-13T01:13:58.797Z,99.90
2022-11-13T01:16:44.526Z,99.90
2022-11-13T01:19:30.021Z,99.90
2022-11-13T01:22:15.304Z,99.90
2022-11-13T01:25:00.781Z,99.90
2022-11-13T01:27:46.214Z,99.90
2022-11-13T01:30:31.921Z,99.90
2022-11-13T01:33:17.142Z,99.90
2022-11-13T01:36:06.936Z,99.90
2022-11-13T01:38:53.633Z,99.90
2022-11-13T01:41:39.859Z,99.90
2022-11-13T01:44:25.344Z,99.90
2022-11-13T01:47:11.268Z,99.90
2022-11-13T01:50:02.313Z,99.90
2022-11-13T01:52:47.823Z,99.90
2022-11-13T01:55:33.088Z,99.90
2022-11-13T01:58:18.411Z,99.90
2022-11-13T02:01:04.144Z,99.90
2022-11-13T02:03:49.907Z,99.90
2022-11-13T02:06:48.218Z,99.90
2022-11-13T02:09:42.793Z,99.90
2022-11-13T02:12:43.394Z,99.90
2022-11-13T02:15:32.950Z,99.90
2022-11-13T02:18:22.500Z,99.90
2022-11-13T02:21:28.639Z,99.90
2022-11-13T02:24:25.751Z,99.90
2022-11-13T02:27:21.003Z,99.90
2022-11-13T02:30:28.433Z,99.90
2022-11-13T02:33:32.935Z,99.90
2022-11-13T02:36:21.953Z,99.90
2022-11-13T02:39:11.704Z,99.90
2022-11-13T02:41:57.297Z,99.90
2022-11-13T02:44:42.740Z,99.90
2022-11-13T02:47:28.996Z,99.90
2022-11-13T02:50:14.585Z,99.90
2022-11-13T02:53:00.773Z,99.90
2022-11-13T02:55:45.882Z,99.90
2022-11-13T02:58:31.640Z,99.90
2022-11-13T03:01:17.502Z,99.90
2022-11-13T03:04:03.932Z,99.90
2022-11-13T03:06:49.177Z,99.90
2022-11-13T03:09:34.655Z,99.90
2022-11-13T03:12:20.431Z,99.90
2022-11-13T03:15:08.262Z,99.90
2022-11-13T03:17:53.930Z,99.90
2022-11-13T03:20:43.845Z,99.90
2022-11-13T03:23:29.528Z,99.90
2022-11-13T03:26:17.628Z,99.90
2022-11-13T03:29:03.126Z,99.90
2022-11-13T03:31:48.702Z,99.90
2022-11-13T03:34:34.879Z,99.90
2022-11-13T03:37:20.578Z,99.90
2022-11-13T03:40:06.804Z,99.90
2022-11-13T03:42:51.936Z,99.90
2022-11-13T03:45:37.852Z,99.90
2022-11-13T03:48:23.375Z,99.90
2022-11-13T03:51:08.789Z,99.90
2022-11-13T03:53:54.780Z,99.90
2022-11-13T03:56:40.198Z,99.90
2022-11-13T03:59:25.596Z,99.90
2022-11-13T04:02:10.805Z,99.90
2022-11-13T04:04:56.472Z,99.90
2022-11-13T04:07:41.949Z,99.90
2022-11-13T04:10:27.618Z,99.90
2022-11-13T04:13:12.921Z,99.90
2022-11-13T04:15:58.237Z,99.90
2022-11-13T04:18:43.833Z,99.90
2022-11-13T04:21:30.324Z,99.90
2022-11-13T04:24:15.981Z,99.90
2022-11-13T04:27:01.747Z,99.90
2022-11-13T04:29:47.089Z,99.90
2022-11-13T04:32:32.925Z,99.90
2022-11-13T04:35:18.650Z,99.90
2022-11-13T04:38:04.658Z,99.90
2022-11-13T04:41:11.591Z,99.90
2022-11-13T04:43:57.336Z,99.90
2022-11-13T04:46:42.751Z,99.90
2022-11-13T04:49:28.140Z,99.90
2022-11-13T04:52:13.408Z,99.90
2022-11-13T04:54:58.997Z,99.90
2022-11-13T04:57:44.652Z,99.90
2022-11-13T05:00:29.916Z,99.90
2022-11-13T05:03:15.391Z,99.90
2022-11-13T05:06:07.055Z,99.90
2022-11-13T05:08:52.299Z,99.90
2022-11-13T05:11:37.626Z,99.90
2022-11-13T05:14:23.074Z,99.90
2022-11-13T05:17:12.109Z,99.90
2022-11-13T05:19:57.588Z,99.90
2022-11-13T05:22:42.964Z,99.90
2022-11-13T05:25:28.782Z,99.90
2022-11-13T05:28:14.332Z,99.90
2022-11-13T05:31:18.527Z,99.90
2022-11-13T05:34:07.007Z,99.90
2022-11-13T05:36:52.587Z,99.90
2022-11-13T05:39:38.139Z,99.90
2022-11-13T05:42:23.521Z,99.90
2022-11-13T05:45:09.643Z,99.90
2022-11-13T05:47:54.726Z,99.90
2022-11-13T05:50:40.417Z,99.90
2022-11-13T05:53:25.720Z,99.90
2022-11-13T05:56:18.183Z,99.90
2022-11-13T05:59:04.937Z,99.90
2022-11-13T06:01:50.341Z,99.90
2022-11-13T06:04:35.989Z,99.90
2022-11-13T06:07:21.703Z,99.90
2022-11-13T06:10:07.916Z,99.90
2022-11-13T06:12:55.261Z,99.90
2022-11-13T06:15:40.591Z,99.90
2022-11-13T06:18:26.890Z,99.90
2022-11-13T06:21:21.985Z,99.90
2022-11-13T06:24:08.946Z,99.90
2022-11-13T06:26:54.585Z,99.90
2022-11-13T06:29:40.158Z,99.90
2022-11-13T06:32:25.375Z,99.90
2022-11-13T06:35:10.762Z,99.90
2022-11-13T06:37:56.347Z,99.90
2022-11-13T06:40:41.829Z,99.90
2022-11-13T06:43:28.357Z,99.90
2022-11-13T06:46:21.734Z,99.90
2022-11-13T06:49:07.431Z,99.90
2022-11-13T06:51:53.165Z,99.90
2022-11-13T06:54:38.683Z,99.90
2022-11-13T06:57:23.917Z,99.90
2022-11-13T07:00:10.400Z,99.90
2022-11-13T07:02:55.667Z,99.90
2022-11-13T07:05:40.928Z,99.90
2022-11-13T07:08:26.243Z,99.90
2022-11-13T07:11:19.663Z,99.90
2022-11-13T07:14:05.210Z,99.90
2022-11-13T07:17:08.485Z,99.90
2022-11-13T07:19:55.065Z,99.90
2022-11-13T07:22:40.701Z,99.90
2022-11-13T07:25:27.739Z,99.90
2022-11-13T07:28:12.953Z,99.90
2022-11-13T07:30:59.546Z,99.90
2022-11-13T07:33:48.571Z,99.90
2022-11-13T07:36:34.054Z,99.90
2022-11-13T07:39:19.557Z,99.90
2022-11-13T07:42:05.062Z,99.90
2022-11-13T07:44:55.251Z,99.90
2022-11-13T07:47:41.497Z,99.90
2022-11-13T07:50:30.501Z,99.90
2022-11-13T07:53:16.709Z,99.90
2022-11-13T07:56:03.559Z,99.90
2022-11-13T07:58:49.990Z,99.90
2022-11-13T08:01:35.385Z,99.90
2022-11-13T08:04:20.731Z,99.90
2022-11-13T08:07:06.486Z,99.90
2022-11-13T08:09:51.990Z,99.90
2022-11-13T08:12:37.368Z,99.90
2022-11-13T08:15:22.783Z,99.90
2022-11-13T08:18:08.080Z,99.90
2022-11-13T08:20:53.384Z,99.90
2022-11-13T08:23:42.096Z,99.90
2022-11-13T08:26:27.547Z,99.90
2022-11-13T08:29:13.077Z,99.90
2022-11-13T08:31:59.110Z,99.90
2022-11-13T08:34:44.850Z,99.90
2022-11-13T08:37:30.565Z,99.90
2022-11-13T08:40:16.183Z,99.90
2022-11-13T08:43:04.653Z,99.90
2022-11-13T08:45:50.278Z,99.90
2022-11-13T08:48:35.854Z,99.90
2022-11-13T08:51:21.572Z,99.90
2022-11-13T08:54:07.149Z,99.90
2022-11-13T08:56:56.142Z,99.90
2022-11-13T08:59:42.758Z,99.90
2022-11-13T09:02:28.101Z,99.90
2022-11-13T09:05:14.471Z,99.90
2022-11-13T09:08:01.692Z,99.90
2022-11-13T09:10:47.637Z,99.90
2022-11-13T09:13:38.568Z,99.90
2022-11-13T09:16:26.824Z,99.90
2022-11-13T09:19:12.212Z,99.90
2022-11-13T09:21:57.996Z,99.90
2022-11-13T09:24:44.741Z,99.90
2022-11-13T09:27:30.508Z,99.90
2022-11-13T09:30:16.553Z,99.90
2022-11-13T09:33:02.420Z,99.90
2022-11-13T09:35:48.026Z,99.90
2022-11-13T09:38:33.657Z,99.90
2022-11-13T09:41:28.195Z,99.90
2022-11-13T09:44:39.078Z,99.90
2022-11-13T09:47:53.308Z,99.90
2022-11-13T09:50:40.946Z,99.90
2022-11-13T09:53:32.195Z,99.90
2022-11-13T09:56:40.238Z,99.90
2022-11-13T09:59:37.046Z,99.90
2022-11-13T10:02:54.073Z,99.90
2022-11-13T10:06:04.388Z,99.90
2022-11-13T10:09:03.622Z,99.90
2022-11-13T10:11:57.096Z,99.90
2022-11-13T10:14:52.517Z,99.90
2022-11-13T10:17:56.856Z,99.90
2022-11-13T10:20:57.911Z,99.90
2022-11-13T10:23:51.526Z,99.90
2022-11-13T10:26:36.891Z,99.90
2022-11-13T10:29:22.517Z,99.90
2022-11-13T10:32:29.350Z,99.90
2022-11-13T10:35:45.614Z,99.90
2022-11-13T10:39:03.323Z,99.90
2022-11-13T10:41:54.406Z,99.90
2022-11-13T10:44:41.021Z,99.90
2022-11-13T10:48:02.123Z,99.90
2022-11-13T10:50:38.238Z,99.90
2022-11-13T10:53:25.764Z,99.90
2022-11-13T10:56:35.605Z,99.90
2022-11-13T10:59:21.006Z,99.90
2022-11-13T11:02:24.729Z,99.90
2022-11-13T11:05:20.733Z,99.90
2022-11-13T11:08:11.057Z,99.90
2022-11-13T11:11:25.784Z,99.90
2022-11-13T11:14:35.579Z,99.90
2022-11-13T11:17:27.570Z,99.90
2022-11-13T11:20:38.147Z,99.90
2022-11-13T11:23:51.857Z,99.70
2022-11-13T11:27:03.206Z,99.70
2022-11-13T11:30:06.965Z,99.40
2022-11-13T11:33:01.263Z,99.50
2022-11-13T11:36:13.873Z,99.90
2022-11-13T11:39:32.601Z,99.90
2022-11-13T11:42:23.725Z,99.00
2022-11-13T11:45:27.486Z,99.70
2022-11-13T11:48:30.959Z,99.20
2022-11-13T11:51:31.437Z,98.80
2022-11-13T11:54:41.989Z,98.30
2022-11-13T11:57:46.070Z,98.30
2022-11-13T12:00:34.418Z,98.00
2022-11-13T12:03:45.353Z,98.80
2022-11-13T12:06:39.238Z,98.30
2022-11-13T12:09:33.264Z,98.00
2022-11-13T12:12:32.512Z,97.70
2022-11-13T12:15:56.585Z,98.00
2022-11-13T12:19:16.684Z,97.30
2022-11-13T12:22:16.419Z,96.50
2022-11-13T12:25:55.365Z,97.30
2022-11-13T12:29:09.496Z,95.80
2022-11-13T12:32:24.418Z,96.90
2022-11-13T12:35:25.707Z,96.80
2022-11-13T12:38:21.440Z,96.70
2022-11-13T12:41:22.016Z,97.50
2022-11-13T12:44:28.857Z,97.30
2022-11-13T12:47:18.708Z,96.10
2022-11-13T12:50:26.105Z,96.60
2022-11-13T12:53:49.487Z,96.90
2022-11-13T12:56:35.596Z,96.30
2022-11-13T12:59:36.076Z,96.50
2022-11-13T13:02:57.667Z,96.60
2022-11-13T13:06:18.854Z,95.60
2022-11-13T13:09:56.576Z,94.60
2022-11-13T13:13:25.337Z,95.60
2022-11-13T13:16:11.994Z,95.20
2022-11-13T13:19:26.497Z,96.10
2022-11-13T13:22:33.705Z,95.20
2022-11-13T13:25:33.392Z,94.90
2022-11-13T13:28:24.485Z,94.20
2022-11-13T13:31:19.564Z,95.00
2022-11-13T13:34:55.361Z,95.10
2022-11-13T13:37:54.564Z,94.00
2022-11-13T13:41:23.009Z,94.40
2022-11-13T13:44:52.887Z,94.60
2022-11-13T13:47:45.508Z,94.90
2022-11-13T13:50:41.869Z,94.90
2022-11-13T13:53:34.096Z,94.80
2022-11-13T13:56:22.733Z,94.80
2022-11-13T13:59:29.092Z,94.80
2022-11-13T14:02:23.133Z,94.00
2022-11-13T14:05:30.509Z,94.80
2022-11-13T14:08:24.506Z,93.90
2022-11-13T14:11:27.073Z,94.00
2022-11-13T14:14:22.185Z,94.00
2022-11-13T14:17:11.125Z,94.20
2022-11-13T14:20:01.209Z,94.30
2022-11-13T14:22:55.347Z,94.50
2022-11-13T14:25:43.746Z,94.10
2022-11-13T14:28:43.043Z,94.40
2022-11-13T14:31:34.628Z,94.30
2022-11-13T14:34:23.909Z,94.30
2022-11-13T14:37:38.050Z,93.80
2022-11-13T14:40:33.854Z,93.50
2022-11-13T14:43:29.405Z,94.00
2022-11-13T14:46:36.224Z,94.10
2022-11-13T14:49:31.425Z,93.60
2022-11-13T14:52:34.940Z,94.20
2022-11-13T14:55:25.388Z,93.70
2022-11-13T14:58:14.387Z,94.30
2022-11-13T15:01:12.588Z,94.10
2022-11-13T15:03:58.177Z,94.40
2022-11-13T15:06:43.666Z,94.50
2022-11-13T15:09:30.966Z,94.40
2022-11-13T15:12:16.488Z,94.30
2022-11-13T15:15:01.937Z,94.40
2022-11-13T15:17:51.055Z,94.40
2022-11-13T15:20:36.754Z,94.90
2022-11-13T15:23:26.093Z,94.70
2022-11-13T15:26:12.619Z,94.60
2022-11-13T15:28:57.999Z,94.60
2022-11-13T15:31:46.942Z,94.40
2022-11-13T15:34:32.424Z,94.60
2022-11-13T15:37:18.090Z,94.60
2022-11-13T15:40:05.229Z,94.30
2022-11-13T15:42:51.736Z,94.30
2022-11-13T15:45:42.807Z,94.20
2022-11-13T15:48:29.619Z,94.10
2022-11-13T15:51:43.528Z,94.20
2022-11-13T15:54:34.345Z,94.00
2022-11-13T15:57:27.208Z,94.30
2022-11-13T16:00:24.852Z,94.50
2022-11-13T16:03:12.069Z,94.60
2022-11-13T16:05:59.453Z,94.80
2022-11-13T16:08:45.753Z,95.00
2022-11-13T16:11:34.155Z,95.10
2022-11-13T16:14:24.318Z,95.30
2022-11-13T16:17:20.747Z,95.80
2022-11-13T16:20:12.581Z,95.70
2022-11-13T16:22:58.161Z,95.90
2022-11-13T16:25:50.213Z,96.20
2022-11-13T16:28:46.924Z,96.30
2022-11-13T16:31:41.825Z,96.40
2022-11-13T16:34:27.100Z,96.60
2022-11-13T16:37:24.000Z,96.70
2022-11-13T16:40:21.106Z,97.10
2022-11-13T16:43:06.521Z,97.20
2022-11-13T16:45:52.861Z,97.30
2022-11-13T16:48:38.185Z,97.50
2022-11-13T16:51:23.827Z,97.60
2022-11-13T16:54:09.345Z,97.80
2022-11-13T16:56:54.669Z,97.90
2022-11-13T16:59:40.867Z,98.00
2022-11-13T17:02:26.555Z,98.10
2022-11-13T17:05:20.125Z,98.10
2022-11-13T17:08:06.249Z,98.30
2022-11-13T17:10:58.949Z,98.30
2022-11-13T17:13:53.471Z,98.50
2022-11-13T17:16:38.872Z,98.60
2022-11-13T17:19:24.207Z,98.50
2022-11-13T17:22:11.404Z,98.60
2022-11-13T17:24:56.957Z,98.80
2022-11-13T17:27:42.741Z,99.00
2022-11-13T17:30:28.244Z,99.10
2022-11-13T17:33:16.324Z,99.30
2022-11-13T17:36:02.563Z,99.40
2022-11-13T17:38:48.157Z,99.50
2022-11-13T17:41:34.899Z,99.50
2022-11-13T17:44:20.573Z,99.70
2022-11-13T17:47:05.802Z,99.80
2022-11-13T17:49:51.438Z,99.80
2022-11-13T17:52:36.570Z,99.90
2022-11-13T17:55:22.647Z,99.90
2022-11-13T17:58:08.136Z,99.90
2022-11-13T18:00:54.527Z,99.90
2022-11-13T18:03:40.544Z,99.90
2022-11-13T18:06:26.424Z,99.90
2022-11-13T18:09:12.119Z,99.90
2022-11-13T18:11:57.391Z,99.90
2022-11-13T18:14:42.812Z,99.90
2022-11-13T18:17:28.331Z,99.90
2022-11-13T18:20:13.694Z,99.90
2022-11-13T18:22:59.168Z,99.90
2022-11-13T18:25:44.451Z,99.90
2022-11-13T18:28:30.587Z,99.90
2022-11-13T18:31:19.730Z,99.90
2022-11-13T18:34:07.611Z,99.90
2022-11-13T18:36:53.250Z,99.90
2022-11-13T18:39:38.556Z,99.90
2022-11-13T18:42:24.960Z,99.90
2022-11-13T18:45:11.663Z,99.90
2022-11-13T18:47:57.040Z,99.90
2022-11-13T18:50:42.227Z,99.90
2022-11-13T18:53:28.462Z,99.90
2022-11-13T18:56:19.640Z,99.90
2022-11-13T18:59:05.470Z,99.90
2022-11-13T19:01:51.028Z,99.90
2022-11-13T19:04:36.471Z,99.90
2022-11-13T19:07:21.716Z,99.90
2022-11-13T19:10:07.836Z,99.90
2022-11-13T19:12:53.426Z,99.90
2022-11-13T19:15:39.379Z,99.90
2022-11-13T19:18:25.735Z,99.90
2022-11-13T19:21:15.317Z,99.90
2022-11-13T19:24:02.534Z,99.90
2022-11-13T19:26:48.136Z,99.90
2022-11-13T19:29:33.706Z,99.90
2022-11-13T19:32:18.983Z,99.90
2022-11-13T19:35:04.784Z,99.90
2022-11-13T19:37:57.605Z,99.90
2022-11-13T19:40:53.049Z,99.90
2022-11-13T19:43:41.099Z,99.90
2022-11-13T19:46:26.733Z,99.90
2022-11-13T19:49:12.049Z,99.90
2022-11-13T19:51:58.469Z,99.90
2022-11-13T19:54:46.750Z,99.90
2022-11-13T19:57:32.497Z,99.90
2022-11-13T20:00:18.670Z,99.90
2022-11-13T20:03:07.664Z,99.90
2022-11-13T20:05:59.220Z,99.90
2022-11-13T20:08:45.132Z,99.90
2022-11-13T20:11:32.165Z,99.90
2022-11-13T20:14:17.281Z,99.90
2022-11-13T20:17:03.489Z,99.90
2022-11-13T20:19:49.341Z,99.90
2022-11-13T20:22:35.466Z,99.90
2022-11-13T20:25:21.189Z,99.90
2022-11-13T20:28:06.585Z,99.90
2022-11-13T20:30:52.038Z,99.90
2022-11-13T20:33:37.412Z,99.90
2022-11-13T20:36:24.501Z,99.90
2022-11-13T20:39:09.955Z,99.90
2022-11-13T20:41:55.238Z,99.90
2022-11-13T20:44:40.658Z,99.90
2022-11-13T20:47:26.469Z,99.90
2022-11-13T20:50:11.581Z,99.90
2022-11-13T20:52:56.916Z,99.90
2022-11-13T20:55:42.279Z,99.90
2022-11-13T20:58:28.232Z,99.90
2022-11-13T21:01:18.157Z,99.90
2022-11-13T21:04:04.056Z,99.90
2022-11-13T21:06:49.812Z,99.90
2022-11-13T21:09:35.249Z,99.90
2022-11-13T21:12:20.521Z,99.90
2022-11-13T21:15:07.049Z,99.90
2022-11-13T21:17:52.486Z,99.90
2022-11-13T21:20:38.234Z,99.90
2022-11-13T21:23:23.710Z,99.90
2022-11-13T21:26:09.843Z,99.90
2022-11-13T21:29:00.200Z,99.90
2022-11-13T21:31:45.849Z,99.90
2022-11-13T21:34:31.255Z,99.90
2022-11-13T21:37:17.854Z,99.90
2022-11-13T21:40:04.660Z,99.90
2022-11-13T21:42:49.997Z,99.90
2022-11-13T21:45:35.342Z,99.90
2022-11-13T21:48:20.890Z,99.90
2022-11-13T21:51:06.456Z,99.90
2022-11-13T21:53:51.793Z,99.90
2022-11-13T21:56:38.688Z,99.90
2022-11-13T21:59:24.178Z,99.90
2022-11-13T22:02:11.098Z,99.90
2022-11-13T22:04:56.478Z,99.90
2022-11-13T22:07:42.897Z,99.90
2022-11-13T22:10:28.215Z,99.90
2022-11-13T22:13:13.469Z,99.90
2022-11-13T22:15:58.845Z,99.90
2022-11-13T22:18:45.179Z,99.90
2022-11-13T22:21:31.715Z,99.90
2022-11-13T22:24:17.112Z,99.90
2022-11-13T22:27:02.489Z,99.90
2022-11-13T22:29:47.804Z,99.90
2022-11-13T22:32:33.352Z,99.90
2022-11-13T22:35:18.672Z,99.90
2022-11-13T22:38:03.970Z,99.90
2022-11-13T22:40:49.175Z,99.90
2022-11-13T22:43:41.382Z,99.90
2022-11-13T22:46:30.546Z,99.90
2022-11-13T22:49:15.720Z,99.90
2022-11-13T22:52:01.269Z,99.90
2022-11-13T22:54:46.611Z,99.90
2022-11-13T22:57:32.426Z,99.90
2022-11-13T23:00:18.295Z,99.90
2022-11-13T23:03:03.772Z,99.90
2022-11-13T23:05:50.085Z,99.90
2022-11-13T23:08:38.914Z,99.90
2022-11-13T23:11:28.855Z,99.90
2022-11-13T23:14:17.283Z,99.90
2022-11-13T23:17:02.437Z,99.90
2022-11-13T23:19:47.737Z,99.90
2022-11-13T23:22:33.313Z,99.90
2022-11-13T23:25:19.229Z,99.90
2022-11-13T23:28:04.976Z,99.90
2022-11-13T23:30:50.489Z,99.90
2022-11-13T23:33:38.103Z,99.90
2022-11-13T23:36:23.848Z,99.90
2022-11-13T23:39:09.078Z,99.90
2022-11-13T23:41:54.416Z,99.90
2022-11-13T23:44:39.922Z,99.90
2022-11-13T23:47:25.458Z,99.90
2022-11-13T23:50:11.600Z,99.90
2022-11-13T23:52:56.990Z,99.90
2022-11-13T23:55:43.508Z,99.90
2022-11-13T23:58:30.481Z,99.90
